Time,TemperatureF,DewpointF,PressureIn,WindDirection,WindDirectionDegrees,WindSpeedMPH,WindSpeedGustMPH,Humidity,HourlyPrecipIn,Conditions,Clouds,dailyrainin,SoftwareType,DateUTC
2013-01-24 00:08:00,40.8,37.0,30.23,ESE,108,0.0,0.0,86,0.00,,,0.00,weatherlink.com 1.10,2013-01-24 06:08:00,
2013-01-24 00:23:00,40.7,37.0,30.23,ESE,107,0.0,0.0,85,0.00,,,0.00,weatherlink.com 1.10,2013-01-24 06:23:00,
2013-01-24 00:39:00,40.1,36.0,30.23,ESE,108,0.0,0.0,86,0.00,,,0.00,weatherlink.com 1.10,2013-01-24 06:39:00,
2013-01-24 00:54:00,39.2,36.0,30.23,ESE,108,0.0,0.0,87,0.00,,,0.00,weatherlink.com 1.10,2013-01-24 06:54:00,
2013-01-24 01:09:00,38.7,36.0,30.23,ESE,108,0.0,0.0,89,0.00,,,0.00,weatherlink.com 1.10,2013-01-24 07:09:00,
2013-01-24 01:24:00,38.3,36.0,30.23,ESE,107,0.0,1.0,90,0.00,,,0.00,weatherlink.com 1.10,2013-01-24 07:24:00,
2013-01-24 01:39:00,37.7,35.0,30.24,ESE,108,0.0,0.0,90,0.00,,,0.00,weatherlink.com 1.10,2013-01-24 07:39:00,
2013-01-24 01:54:00,37.5,35.0,30.25,ESE,108,0.0,0.0,92,0.00,,,0.00,weatherlink.com 1.10,2013-01-24 07:54:00,
2013-01-24 02:09:00,37.5,35.0,30.25,ESE,108,0.0,0.0,92,0.00,,,0.00,weatherlink.com 1.10,2013-01-24 08:09:00,
2013-01-24 02:24:00,39.1,37.0,30.25,NNE,14,0.0,1.0,93,0.00,,,0.00,weatherlink.com 1.10,2013-01-24 08:24:00,
2013-01-24 02:39:00,41.5,39.0,30.26,NE,43,2.0,2.0,89,0.00,,,0.00,weatherlink.com 1.10,2013-01-24 08:39:00,
2013-01-24 02:54:00,42.7,39.0,30.27,NNE,32,1.0,4.0,86,0.00,,,0.00,weatherlink.com 1.10,2013-01-24 08:54:00,
2013-01-24 03:09:00,42.8,38.0,30.27,North,349,5.0,9.0,82,0.00,,,0.00,weatherlink.com 1.10,2013-01-24 09:09:00,
2013-01-24 03:24:00,42.0,36.0,30.28,NNE,25,2.0,9.0,80,0.00,,,0.00,weatherlink.com 1.10,2013-01-24 09:24:00,
2013-01-24 03:39:00,41.5,35.0,30.30,North,359,4.0,8.0,78,0.00,,,0.00,weatherlink.com 1.10,2013-01-24 09:39:00,
2013-01-24 03:54:00,40.9,34.0,30.30,NNE,12,4.0,12.0,75,0.00,,,0.00,weatherlink.com 1.10,2013-01-24 09:54:00,
2013-01-24 04:09:00,40.3,32.0,30.31,NE,49,3.0,9.0,73,0.00,,,0.00,weatherlink.com 1.10,2013-01-24 10:09:00,
2013-01-24 04:24:00,39.8,31.0,30.31,NW,319,9.0,11.0,70,0.00,,,0.00,weatherlink.com 1.10,2013-01-24 10:24:00,
2013-01-24 04:39:00,39.4,30.0,30.32,ESE,104,2.0,9.0,69,0.00,,,0.00,weatherlink.com 1.10,2013-01-24 10:39:00,
2013-01-24 04:54:00,39.1,30.0,30.32,North,8,3.0,7.0,69,0.00,,,0.00,weatherlink.com 1.10,2013-01-24 10:54:00,
2013-01-24 05:09:00,38.8,29.0,30.33,NNE,25,5.0,9.0,67,0.00,,,0.00,weatherlink.com 1.10,2013-01-24 11:09:00,
2013-01-24 05:24:00,38.7,27.0,30.34,NNE,23,9.0,15.0,64,0.00,,,0.00,weatherlink.com 1.10,2013-01-24 11:24:00,
2013-01-24 05:39:00,38.5,27.0,30.35,NNE,32,5.0,8.0,63,0.00,,,0.00,weatherlink.com 1.10,2013-01-24 11:39:00,
2013-01-24 05:54:00,38.3,26.0,30.36,NNE,23,9.0,13.0,62,0.00,,,0.00,weatherlink.com 1.10,2013-01-24 11:54:00,
2013-01-24 06:10:00,37.9,26.0,30.36,NE,37,5.0,12.0,63,0.00,,,0.00,weatherlink.com 1.10,2013-01-24 12:10:00,
2013-01-24 06:25:00,37.3,23.0,30.38,NW,310,3.0,11.0,57,0.00,,,0.00,weatherlink.com 1.10,2013-01-24 12:25:00,
2013-01-24 06:40:00,36.8,21.0,30.38,NNE,20,4.0,9.0,54,0.00,,,0.00,weatherlink.com 1.10,2013-01-24 12:40:00,
2013-01-24 06:55:00,36.3,20.0,30.39,NE,34,11.0,11.0,52,0.00,,,0.00,weatherlink.com 1.10,2013-01-24 12:55:00,
2013-01-24 07:10:00,35.7,20.0,30.39,North,1,6.0,13.0,53,0.00,,,0.00,weatherlink.com 1.10,2013-01-24 13:10:00,
2013-01-24 07:25:00,35.2,20.0,30.39,NE,43,5.0,8.0,54,0.00,,,0.00,weatherlink.com 1.10,2013-01-24 13:25:00,
2013-01-24 07:40:00,35.0,21.0,30.40,NNE,19,3.0,10.0,56,0.00,,,0.00,weatherlink.com 1.10,2013-01-24 13:40:00,
2013-01-24 07:55:00,34.9,21.0,30.40,NNW,344,2.0,7.0,57,0.00,,,0.00,weatherlink.com 1.10,2013-01-24 13:55:00,
2013-01-24 08:10:00,34.9,21.0,30.41,NNW,347,7.0,8.0,58,0.00,,,0.00,weatherlink.com 1.10,2013-01-24 14:10:00,
2013-01-24 08:25:00,34.8,21.0,30.42,NNW,345,4.0,10.0,58,0.00,,,0.00,weatherlink.com 1.10,2013-01-24 14:25:00,
2013-01-24 08:40:00,34.7,22.0,30.43,NNE,25,6.0,12.0,59,0.00,,,0.00,weatherlink.com 1.10,2013-01-24 14:40:00,
2013-01-24 08:55:00,34.8,22.0,30.43,NE,43,10.0,11.0,60,0.00,,,0.00,weatherlink.com 1.10,2013-01-24 14:55:00,
2013-01-24 09:10:00,34.8,22.0,30.43,North,8,8.0,9.0,60,0.00,,,0.00,weatherlink.com 1.10,2013-01-24 15:10:00,
2013-01-24 09:25:00,34.9,21.0,30.44,NNE,13,8.0,11.0,58,0.00,,,0.00,weatherlink.com 1.10,2013-01-24 15:25:00,
2013-01-24 09:40:00,35.1,22.0,30.44,NNE,20,2.0,9.0,59,0.00,,,0.00,weatherlink.com 1.10,2013-01-24 15:40:00,
2013-01-24 09:55:00,35.4,22.0,30.45,ENE,67,3.0,11.0,58,0.00,,,0.00,weatherlink.com 1.10,2013-01-24 15:55:00,
2013-01-24 10:10:00,35.8,22.0,30.45,NNE,27,4.0,8.0,58,0.00,,,0.00,weatherlink.com 1.10,2013-01-24 16:10:00,
2013-01-24 10:25:00,36.1,22.0,30.45,NNE,26,6.0,8.0,57,0.00,,,0.00,weatherlink.com 1.10,2013-01-24 16:25:00,
2013-01-24 10:40:00,36.3,22.0,30.46,NNE,16,6.0,7.0,57,0.00,,,0.00,weatherlink.com 1.10,2013-01-24 16:40:00,
2013-01-24 10:55:00,36.4,22.0,30.45,NNE,26,4.0,9.0,56,0.00,,,0.00,weatherlink.com 1.10,2013-01-24 16:55:00,
2013-01-24 11:10:00,36.9,22.0,30.45,North,4,7.0,12.0,56,0.00,,,0.00,weatherlink.com 1.10,2013-01-24 17:10:00,
2013-01-24 11:25:00,37.0,22.0,30.45,North,10,5.0,9.0,56,0.00,,,0.00,weatherlink.com 1.10,2013-01-24 17:25:00,
2013-01-24 11:40:00,36.9,23.0,30.44,NE,37,3.0,10.0,57,0.00,,,0.00,weatherlink.com 1.10,2013-01-24 17:40:00,
2013-01-24 11:56:00,37.0,22.0,30.43,North,4,4.0,9.0,56,0.00,,,0.00,weatherlink.com 1.10,2013-01-24 17:56:00,
2013-01-24 12:11:00,37.3,23.0,30.41,NNE,15,3.0,7.0,56,0.00,,,0.00,weatherlink.com 1.10,2013-01-24 18:11:00,
2013-01-24 12:26:00,37.8,23.0,30.40,North,5,8.0,10.0,55,0.00,,,0.00,weatherlink.com 1.10,2013-01-24 18:26:00,
2013-01-24 12:41:00,38.2,24.0,30.39,NNE,33,2.0,14.0,56,0.00,,,0.00,weatherlink.com 1.10,2013-01-24 18:41:00,
2013-01-24 12:56:00,38.4,23.0,30.39,NNE,18,7.0,11.0,55,0.00,,,0.00,weatherlink.com 1.10,2013-01-24 18:56:00,
2013-01-24 13:26:00,39.0,24.0,30.38,ENE,63,1.0,7.0,55,0.00,,,0.00,weatherlink.com 1.10,2013-01-24 19:26:00,
2013-01-24 13:41:00,38.9,24.0,30.37,North,354,1.0,12.0,56,0.00,,,0.00,weatherlink.com 1.10,2013-01-24 19:41:00,
2013-01-24 13:56:00,39.9,25.0,30.36,NE,37,4.0,8.0,55,0.00,,,0.00,weatherlink.com 1.10,2013-01-24 19:56:00,
2013-01-24 14:11:00,39.7,24.0,30.36,NNW,347,4.0,11.0,54,0.00,,,0.00,weatherlink.com 1.10,2013-01-24 20:11:00,
2013-01-24 14:26:00,39.9,24.0,30.36,NE,37,2.0,9.0,53,0.00,,,0.00,weatherlink.com 1.10,2013-01-24 20:26:00,
2013-01-24 14:41:00,39.9,23.0,30.35,NNW,342,4.0,11.0,52,0.00,,,0.00,weatherlink.com 1.10,2013-01-24 20:41:00,
2013-01-24 14:56:00,40.1,23.0,30.35,NNE,14,4.0,11.0,50,0.00,,,0.00,weatherlink.com 1.10,2013-01-24 20:56:00,
2013-01-24 15:11:00,40.0,23.0,30.36,North,11,7.0,7.0,51,0.00,,,0.00,weatherlink.com 1.10,2013-01-24 21:11:00,
2013-01-24 15:26:00,39.4,23.0,30.36,North,1,7.0,8.0,52,0.00,,,0.00,weatherlink.com 1.10,2013-01-24 21:26:00,
2013-01-24 15:41:00,40.0,23.0,30.34,ESE,113,1.0,8.0,51,0.00,,,0.00,weatherlink.com 1.10,2013-01-24 21:41:00,
2013-01-24 15:56:00,39.9,22.0,30.35,NNE,19,0.0,7.0,50,0.00,,,0.00,weatherlink.com 1.10,2013-01-24 21:56:00,
2013-01-24 16:11:00,39.9,22.0,30.35,ESE,105,2.0,4.0,50,0.00,,,0.00,weatherlink.com 1.10,2013-01-24 22:11:00,
2013-01-24 16:26:00,40.1,23.0,30.33,ENE,63,1.0,4.0,50,0.00,,,0.00,weatherlink.com 1.10,2013-01-24 22:26:00,
2013-01-24 16:41:00,40.2,22.0,30.33,ESE,114,1.0,2.0,48,0.00,,,0.00,weatherlink.com 1.10,2013-01-24 22:41:00,
2013-01-24 16:56:00,40.2,23.0,30.32,East,79,0.0,2.0,50,0.00,,,0.00,weatherlink.com 1.10,2013-01-24 22:56:00,
2013-01-24 17:11:00,40.1,22.0,30.32,East,87,2.0,3.0,49,0.00,,,0.00,weatherlink.com 1.10,2013-01-24 23:11:00,
2013-01-24 17:26:00,40.1,23.0,30.32,NNE,22,0.0,3.0,50,0.00,,,0.00,weatherlink.com 1.10,2013-01-24 23:26:00,
2013-01-24 17:41:00,40.2,23.0,30.33,North,5,0.0,2.0,50,0.00,,,0.00,weatherlink.com 1.10,2013-01-24 23:41:00,
2013-01-24 17:56:00,40.1,22.0,30.32,NNE,20,1.0,2.0,48,0.00,,,0.00,weatherlink.com 1.10,2013-01-24 23:56:00,
2013-01-24 18:11:00,40.2,21.0,30.33,NNE,23,0.0,4.0,47,0.00,,,0.00,weatherlink.com 1.10,2013-01-25 00:11:00,
2013-01-24 18:26:00,40.2,21.0,30.32,ENE,57,0.0,3.0,47,0.00,,,0.00,weatherlink.com 1.10,2013-01-25 00:26:00,
2013-01-24 18:41:00,40.1,20.0,30.33,NNE,30,1.0,6.0,45,0.00,,,0.00,weatherlink.com 1.10,2013-01-25 00:41:00,
2013-01-24 18:56:00,40.1,21.0,30.33,NNE,25,3.0,7.0,46,0.00,,,0.00,weatherlink.com 1.10,2013-01-25 00:56:00,
2013-01-24 19:11:00,40.0,21.0,30.32,NE,48,0.0,5.0,47,0.00,,,0.00,weatherlink.com 1.10,2013-01-25 01:11:00,
2013-01-24 19:26:00,40.1,21.0,30.30,NNE,16,0.0,7.0,47,0.00,,,0.00,weatherlink.com 1.10,2013-01-25 01:26:00,
2013-01-24 19:41:00,40.2,21.0,30.31,ENE,75,1.0,4.0,46,0.00,,,0.00,weatherlink.com 1.10,2013-01-25 01:41:00,
2013-01-24 19:56:00,40.2,21.0,30.30,NE,54,0.0,6.0,46,0.00,,,0.00,weatherlink.com 1.10,2013-01-25 01:56:00,
2013-01-24 20:11:00,40.2,21.0,30.29,NNE,12,2.0,2.0,47,0.00,,,0.00,weatherlink.com 1.10,2013-01-25 02:11:00,
2013-01-24 20:26:00,40.2,20.0,30.29,NNE,27,0.0,3.0,45,0.00,,,0.00,weatherlink.com 1.10,2013-01-25 02:26:00,
2013-01-24 20:40:00,40.1,20.0,30.28,ENE,58,0.0,4.0,45,0.00,,,0.00,weatherlink.com 1.10,2013-01-25 02:40:00,
2013-01-24 20:55:00,40.1,21.0,30.27,East,84,1.0,2.0,46,0.00,,,0.00,weatherlink.com 1.10,2013-01-25 02:55:00,
2013-01-24 21:10:00,40.1,20.0,30.26,NW,317,2.0,3.0,45,0.00,,,0.00,weatherlink.com 1.10,2013-01-25 03:10:00,
2013-01-24 21:25:00,40.1,20.0,30.26,North,9,5.0,5.0,45,0.00,,,0.00,weatherlink.com 1.10,2013-01-25 03:25:00,
2013-01-24 21:41:00,40.1,20.0,30.25,NE,44,2.0,4.0,45,0.00,,,0.00,weatherlink.com 1.10,2013-01-25 03:41:00,
2013-01-24 21:56:00,40.1,21.0,30.25,WNW,300,0.0,1.0,46,0.00,,,0.00,weatherlink.com 1.10,2013-01-25 03:56:00,
2013-01-24 22:11:00,40.1,22.0,30.25,North,10,0.0,1.0,48,0.00,,,0.00,weatherlink.com 1.10,2013-01-25 04:11:00,
2013-01-24 22:26:00,40.1,21.0,30.24,NE,41,0.0,1.0,47,0.00,,,0.00,weatherlink.com 1.10,2013-01-25 04:26:00,
2013-01-24 22:41:00,40.2,21.0,30.25,NNE,25,0.0,2.0,47,0.00,,,0.00,weatherlink.com 1.10,2013-01-25 04:41:00,
2013-01-24 22:56:00,40.4,22.0,30.24,East,97,0.0,2.0,48,0.00,,,0.00,weatherlink.com 1.10,2013-01-25 04:56:00,
2013-01-24 23:11:00,40.5,22.0,30.24,NNE,29,0.0,2.0,47,0.00,,,0.00,weatherlink.com 1.10,2013-01-25 05:11:00,
2013-01-24 23:26:00,40.7,22.0,30.23,NE,55,0.0,4.0,47,0.00,,,0.00,weatherlink.com 1.10,2013-01-25 05:26:00,
2013-01-24 23:41:00,40.8,23.0,30.23,NE,46,0.0,1.0,49,0.00,,,0.00,weatherlink.com 1.10,2013-01-25 05:41:00,
2013-01-24 23:56:00,40.9,22.0,30.23,NE,49,0.0,1.0,48,0.00,,,0.00,weatherlink.com 1.10,2013-01-25 05:56:00,